createdAt,value
2019-04-05T00:02:17.503Z,-21401.04
2019-04-05T00:04:45.784Z,-21371.21
2019-04-05T00:07:14.694Z,-21414.25
2019-04-05T00:09:42.990Z,-21429.14
2019-04-05T00:12:11.310Z,-21445.99
2019-04-05T00:14:39.602Z,-21389.23
2019-04-05T00:17:07.875Z,-21431.25
2019-04-05T00:19:36.155Z,-21456.37
2019-04-05T00:22:04.483Z,-21434.62
2019-04-05T00:24:32.776Z,-21435.32
2019-04-05T00:27:01.037Z,-21410.74
2019-04-05T00:29:34.018Z,-21424.23
2019-04-05T00:32:03.122Z,-21378.53
2019-04-05T00:34:31.706Z,-21422.41
2019-04-05T00:37:00.117Z,-21427.74
2019-04-05T00:39:28.379Z,-21464.36
2019-04-05T00:41:56.771Z,-21460.57
2019-04-05T00:44:25.040Z,-21437.71
2019-04-05T00:46:53.383Z,-21448.65
2019-04-05T00:49:21.643Z,-21483.41
2019-04-05T00:51:50.027Z,-21443.60
2019-04-05T00:54:18.500Z,-21452.86
2019-04-05T00:56:46.784Z,-21465.76
2019-04-05T00:59:15.070Z,-21485.93
2019-04-05T01:01:44.251Z,-21482.71
2019-04-05T01:04:12.529Z,-21449.92
2019-04-05T01:06:40.875Z,-21465.62
2019-04-05T01:09:09.420Z,-21439.81
2019-04-05T01:11:37.778Z,-21457.49
2019-04-05T01:14:06.110Z,-21441.07
2019-04-05T01:16:34.583Z,-21461.42
2019-04-05T01:19:04.166Z,-21444.03
2019-04-05T01:21:35.748Z,-21432.79
2019-04-05T01:24:04.788Z,-21445.71
2019-04-05T01:26:33.055Z,-21444.45
2019-04-05T01:29:01.359Z,-21462.25
2019-04-05T01:31:29.630Z,-21455.53
2019-04-05T01:33:57.965Z,-21456.51
2019-04-05T01:36:26.224Z,-21443.74
2019-04-05T01:38:54.493Z,-21459.17
2019-04-05T01:41:22.853Z,-21441.78
2019-04-05T01:43:51.134Z,-21464.64
2019-04-05T01:46:19.415Z,-21477.67
2019-04-05T01:48:47.672Z,-21470.39
2019-04-05T01:51:16.010Z,-21477.39
2019-04-05T01:53:44.342Z,-21475.71
2019-04-05T01:56:12.624Z,-21482.58
2019-04-05T01:58:40.879Z,-21480.89
2019-04-05T02:01:09.154Z,-21465.76
2019-04-05T02:03:37.437Z,-21491.82
2019-04-05T02:06:05.783Z,-21502.03
2019-04-05T02:08:34.124Z,-21476.27
2019-04-05T02:11:02.615Z,-21497.28
2019-04-05T02:13:30.947Z,-21462.12
2019-04-05T02:16:06.146Z,-21469.69
2019-04-05T02:18:29.306Z,-21481.45
2019-04-05T02:20:57.605Z,-21460.15
2019-04-05T02:23:25.898Z,-21481.60
2019-04-05T02:25:54.238Z,-21488.18
2019-04-05T02:28:25.246Z,-21499.51
2019-04-05T02:30:52.507Z,-21503.29
2019-04-05T02:33:20.815Z,-21468.29
2019-04-05T02:35:49.132Z,-21488.32
2019-04-05T02:38:17.460Z,-21492.38
2019-04-05T02:40:46.597Z,-21469.69
2019-04-05T02:43:16.471Z,-21467.59
2019-04-05T02:45:46.240Z,-21453.56
2019-04-05T02:48:14.621Z,-21471.65
2019-04-05T02:50:46.109Z,-21462.40
2019-04-05T02:53:15.923Z,-21496.86
2019-04-05T02:55:44.754Z,-21482.58
2019-04-05T02:58:13.306Z,-21482.43
2019-04-05T03:00:42.215Z,-21438.55
2019-04-05T03:03:11.067Z,-21463.23
2019-04-05T03:05:39.398Z,-21477.25
2019-04-05T03:08:08.719Z,-21440.09
2019-04-05T03:10:58.253Z,-21468.84
2019-04-05T03:13:31.567Z,-21438.27
2019-04-05T03:16:01.872Z,-21450.06
2019-04-05T03:18:31.682Z,-21441.92
2019-04-05T03:21:03.372Z,-21452.86
2019-04-05T03:23:34.226Z,-21454.68
2019-04-05T03:26:04.927Z,-21411.87
2019-04-05T03:28:35.861Z,-21414.82
2019-04-05T03:31:04.199Z,-21408.35
2019-04-05T03:33:32.898Z,-21397.11
2019-04-05T03:36:01.545Z,-21378.82
2019-04-05T03:38:29.875Z,-21391.48
2019-04-05T03:40:58.276Z,-21403.86
2019-04-05T03:43:26.599Z,-21369.24
2019-04-05T03:45:54.871Z,-21382.75
2019-04-05T03:48:23.154Z,-21397.11
2019-04-05T03:50:51.454Z,-21377.69
2019-04-05T03:53:19.787Z,-21396.68
2019-04-05T03:55:48.135Z,-21380.78
2019-04-05T03:58:16.604Z,-21385.71
2019-04-05T04:00:44.935Z,-21403.01
2019-04-05T04:03:13.662Z,-21375.71
2019-04-05T04:05:42.318Z,-21397.53
2019-04-05T04:08:11.344Z,-21406.95
2019-04-05T04:10:39.638Z,-21387.12
2019-04-05T04:13:07.990Z,-21391.48
2019-04-05T04:15:36.364Z,-21385.71
2019-04-05T04:18:05.001Z,-21411.16
2019-04-05T04:20:42.698Z,-21413.41
2019-04-05T04:23:11.280Z,-21416.50
2019-04-05T04:25:40.495Z,-21431.54
2019-04-05T04:28:09.131Z,-21381.35
2019-04-05T04:30:37.864Z,-21400.20
2019-04-05T04:33:06.724Z,-21444.03
2019-04-05T04:35:36.028Z,-21416.78
2019-04-05T04:38:04.855Z,-21418.19
2019-04-05T04:40:33.169Z,-21437.00
2019-04-05T04:43:01.631Z,-21460.57
2019-04-05T04:47:58.244Z,-21458.05
2019-04-05T04:50:26.915Z,-21470.95
2019-04-05T04:52:55.246Z,-21474.45
2019-04-05T04:55:23.601Z,-21482.58
2019-04-05T04:57:52.376Z,-21472.63
2019-04-05T05:00:20.983Z,-21432.23
2019-04-05T05:02:49.255Z,-21468.43
2019-04-05T05:05:17.947Z,-21484.68
2019-04-05T05:07:46.313Z,-21447.82
2019-04-05T05:10:14.906Z,-21451.88
2019-04-05T05:12:43.254Z,-21475.02
2019-04-05T05:15:11.690Z,-21421.84
2019-04-05T05:17:39.975Z,-21411.72
2019-04-05T05:20:09.405Z,-21405.54
2019-04-05T05:22:37.742Z,-21403.57
2019-04-05T05:25:06.958Z,-21466.18
2019-04-05T05:27:35.306Z,-21459.59
2019-04-05T05:30:05.795Z,-21410.88
2019-04-05T05:32:34.440Z,-21410.88
2019-04-05T05:35:02.886Z,-21426.62
2019-04-05T05:37:32.856Z,-21434.90
2019-04-05T05:40:01.389Z,-21437.43
2019-04-05T05:42:29.712Z,-21461.13
2019-04-05T05:44:58.069Z,-21476.70
2019-04-05T05:47:26.380Z,-21445.43
2019-04-05T05:49:54.649Z,-21426.48
2019-04-05T05:52:23.205Z,-21456.37
2019-04-05T05:54:51.469Z,-21400.63
2019-04-05T05:57:19.749Z,-21403.29
2019-04-05T05:59:48.018Z,-21396.96
2019-04-05T06:02:16.386Z,-21398.51
2019-04-05T06:04:44.713Z,-21407.93
2019-04-05T06:07:12.995Z,-21420.85
2019-04-05T06:09:41.274Z,-21425.07
2019-04-05T06:12:09.545Z,-21433.78
2019-04-05T06:14:37.818Z,-21394.01
2019-04-05T06:17:06.153Z,-21389.09
2019-04-05T06:19:34.427Z,-21416.36
2019-04-05T06:22:02.685Z,-21380.36
2019-04-05T06:24:30.956Z,-21414.11
2019-04-05T06:26:59.302Z,-21460.71
2019-04-05T06:29:27.571Z,-21445.29
2019-04-05T06:31:55.840Z,-21412.00
2019-04-05T06:34:24.201Z,-21440.23
2019-04-05T06:36:52.527Z,-21431.81
2019-04-05T06:39:20.970Z,-21452.58
2019-04-05T06:41:49.305Z,-21464.78
2019-04-05T06:44:17.564Z,-21448.52
2019-04-05T06:46:45.843Z,-21418.89
2019-04-05T06:49:14.112Z,-21408.77
2019-04-05T06:51:42.389Z,-21390.21
2019-04-05T06:54:10.689Z,-21439.25
2019-04-05T06:56:38.945Z,-21424.65
2019-04-05T06:59:07.227Z,-21438.13
2019-04-05T07:01:35.487Z,-21482.01
2019-04-05T07:04:03.850Z,-21485.80
2019-04-05T07:06:32.128Z,-21430.55
2019-04-05T07:09:00.398Z,-21453.70
2019-04-05T07:11:29.711Z,-21487.05
2019-04-05T07:13:59.493Z,-21504.83
2019-04-05T07:16:27.988Z,-21451.88
2019-04-05T07:18:56.243Z,-21456.37
2019-04-05T07:21:24.529Z,-21487.34
2019-04-05T07:23:52.792Z,-21479.91
2019-04-05T07:26:21.290Z,-21460.57
2019-04-05T07:28:49.717Z,-21462.12
2019-04-05T07:31:17.991Z,-21486.49
2019-04-05T07:33:46.272Z,-21489.72
2019-04-05T07:36:14.530Z,-21489.16
2019-04-05T07:38:42.799Z,-21485.38
2019-04-05T07:41:11.087Z,-21472.35
2019-04-05T07:43:39.354Z,-21468.99
2019-04-05T07:46:07.624Z,-21487.34
2019-04-05T07:48:44.611Z,-21486.21
2019-04-05T07:51:05.866Z,-21482.99
2019-04-05T07:53:34.150Z,-21498.11
2019-04-05T07:56:02.492Z,-21503.57
2019-04-05T07:58:30.769Z,-21490.84
2019-04-05T08:00:59.047Z,-21482.01
2019-04-05T08:03:27.446Z,-21451.04
2019-04-05T08:05:55.713Z,-21464.36
2019-04-05T08:08:32.949Z,-21468.84
2019-04-05T08:11:01.282Z,-21477.39
2019-04-05T08:13:30.242Z,-21459.45
2019-04-05T08:16:01.319Z,-21478.09
2019-04-05T08:18:29.823Z,-21452.72
2019-04-05T08:20:58.082Z,-21455.39
2019-04-05T08:23:26.410Z,-21445.57
2019-04-05T08:25:54.746Z,-21441.50
2019-04-05T08:28:23.032Z,-21501.75
2019-04-05T08:30:51.291Z,-21499.80
2019-04-05T08:33:19.549Z,-21472.91
2019-04-05T08:35:47.915Z,-21479.77
2019-04-05T08:38:16.201Z,-21480.47
2019-04-05T08:40:44.477Z,-21486.21
2019-04-05T08:43:12.759Z,-21486.36
2019-04-05T08:45:41.034Z,-21475.15
2019-04-05T08:48:09.303Z,-21452.58
2019-04-05T08:50:38.177Z,-21486.36
2019-04-05T08:53:06.451Z,-21502.17
2019-04-05T08:55:34.737Z,-21519.37
2019-04-05T08:58:02.999Z,-21503.43
2019-04-05T09:00:31.301Z,-21512.66
2019-04-05T09:02:59.601Z,-21514.48
2019-04-05T09:05:27.878Z,-21522.45
2019-04-05T09:07:56.148Z,-21514.91
2019-04-05T09:10:24.407Z,-21509.45
2019-04-05T09:12:52.698Z,-21523.01
2019-04-05T09:15:20.971Z,-21531.25
2019-04-05T09:17:49.316Z,-21531.54
2019-04-05T09:20:17.594Z,-21530.28
2019-04-05T09:22:45.879Z,-21519.94
2019-04-05T09:25:14.232Z,-21533.07
2019-04-05T09:27:42.524Z,-21515.04
2019-04-05T09:30:11.087Z,-21532.52
2019-04-05T09:32:39.614Z,-21515.46
2019-04-05T09:35:08.248Z,-21514.91
2019-04-05T09:37:36.542Z,-21523.99
2019-04-05T09:40:06.412Z,-21525.11
2019-04-05T09:42:34.752Z,-21533.49
2019-04-05T09:45:03.412Z,-21520.07
2019-04-05T09:47:31.714Z,-21534.19
2019-04-05T09:50:00.010Z,-21525.66
2019-04-05T09:52:28.332Z,-21507.21
2019-04-05T09:54:56.599Z,-21524.55
2019-04-05T09:57:24.905Z,-21542.56
2019-04-05T09:59:53.277Z,-21548.85
2019-04-05T10:02:21.541Z,-21542.56
2019-04-05T10:04:49.798Z,-21518.12
2019-04-05T10:07:18.151Z,-21503.15
2019-04-05T10:09:46.410Z,-21504.55
2019-04-05T10:12:14.702Z,-21531.81
2019-04-05T10:14:42.986Z,-21533.77
2019-04-05T10:17:11.264Z,-21464.78
2019-04-05T10:19:49.391Z,-21522.17
2019-04-05T10:22:09.514Z,-21540.05
2019-04-05T10:24:37.824Z,-21503.43
2019-04-05T10:27:06.110Z,-21526.64
2019-04-05T10:29:34.415Z,-21518.54
2019-04-05T10:32:02.784Z,-21540.05
2019-04-05T10:34:31.081Z,-21542.15
2019-04-05T10:36:59.377Z,-21547.17
2019-04-05T10:39:27.733Z,-21532.93
2019-04-05T10:42:03.359Z,-21536.84
2019-04-05T10:44:26.046Z,-21538.37
2019-04-05T10:46:54.358Z,-21551.50
2019-04-05T10:49:22.601Z,-21542.71
2019-04-05T10:51:50.906Z,-21533.35
2019-04-05T10:54:19.205Z,-21542.56
2019-04-05T10:56:47.472Z,-21524.27
2019-04-05T10:59:16.030Z,-21525.52
2019-04-05T11:01:44.321Z,-21537.12
2019-04-05T11:04:12.689Z,-21547.03
2019-04-05T11:06:41.086Z,-21537.54
2019-04-05T11:09:09.628Z,-21531.39
2019-04-05T11:11:37.923Z,-21540.61
2019-04-05T11:14:13.749Z,-21528.60
2019-04-05T11:16:36.223Z,-21515.74
2019-04-05T11:19:04.586Z,-21496.44
2019-04-05T11:21:32.861Z,-21543.40
2019-04-05T11:24:01.229Z,-21541.59
2019-04-05T11:26:29.523Z,-21529.44
2019-04-05T11:28:57.798Z,-21538.10
2019-04-05T11:31:26.075Z,-21541.73
2019-04-05T11:33:54.910Z,-21556.94
2019-04-05T11:36:24.903Z,-21548.43
2019-04-05T11:38:53.365Z,-21554.99
2019-04-05T11:41:23.187Z,-21558.20
2019-04-05T11:43:52.518Z,-21573.40
2019-04-05T11:46:20.996Z,-21548.99
2019-04-05T11:48:49.548Z,-21566.85
2019-04-05T11:51:17.913Z,-21542.56
2019-04-05T11:53:46.166Z,-21557.50
2019-04-05T11:56:15.473Z,-21557.08
2019-04-05T11:58:48.800Z,-21550.11
2019-04-05T12:01:19.059Z,-21565.03
2019-04-05T12:03:47.387Z,-21567.68
2019-04-05T12:06:15.676Z,-21559.17
2019-04-05T12:08:43.936Z,-21570.75
2019-04-05T12:11:12.289Z,-21563.36
2019-04-05T12:13:40.575Z,-21571.45
2019-04-05T12:16:10.433Z,-21565.45
2019-04-05T12:18:38.822Z,-21531.12
2019-04-05T12:21:07.101Z,-21548.57
2019-04-05T12:23:37.117Z,-21548.85
2019-04-05T12:26:05.488Z,-21559.73
2019-04-05T12:28:33.766Z,-21561.68
2019-04-05T12:31:02.113Z,-21571.03
2019-04-05T12:33:30.389Z,-21547.32
2019-04-05T12:35:58.682Z,-21558.61
2019-04-05T12:38:35.725Z,-21550.25
2019-04-05T12:41:04.648Z,-21532.65
2019-04-05T12:43:33.064Z,-21540.89
2019-04-05T12:46:03.132Z,-21555.27
2019-04-05T12:48:31.414Z,-21550.94
2019-04-05T12:51:01.207Z,-21554.57
2019-04-05T12:53:29.936Z,-21555.69
2019-04-05T12:55:58.181Z,-21548.85
2019-04-05T12:58:26.754Z,-21553.32
2019-04-05T13:00:56.194Z,-21528.88
2019-04-05T13:03:25.221Z,-21540.47
2019-04-05T13:05:53.493Z,-21542.98
2019-04-05T13:08:23.622Z,-21523.71
2019-04-05T13:10:55.516Z,-21521.47
2019-04-05T13:13:21.781Z,-21556.80
2019-04-05T13:15:50.031Z,-21538.93
2019-04-05T13:18:18.319Z,-21559.73
2019-04-05T13:20:46.606Z,-21532.09
2019-04-05T13:23:14.960Z,-21556.10
2019-04-05T13:25:43.245Z,-21562.52
2019-04-05T13:28:13.428Z,-21554.71
2019-04-05T13:30:41.535Z,-21563.08
2019-04-05T13:33:09.790Z,-21564.05
2019-04-05T13:35:38.089Z,-21552.48
2019-04-05T13:38:06.373Z,-21540.19
2019-04-05T13:40:34.646Z,-21530.14
2019-04-05T13:43:03.015Z,-21533.21
2019-04-05T13:45:31.394Z,-21513.22
2019-04-05T13:47:59.687Z,-21545.50
2019-04-05T13:50:27.951Z,-21547.45
2019-04-05T13:52:56.242Z,-21556.94
2019-04-05T13:55:24.514Z,-21516.86
2019-04-05T13:57:52.799Z,-21551.08
2019-04-05T14:00:21.449Z,-21567.68
2019-04-05T14:02:50.765Z,-21566.71
2019-04-05T14:05:22.283Z,-21542.84
2019-04-05T14:07:49.964Z,-21526.50
2019-04-05T14:10:18.313Z,-21531.95
2019-04-05T14:12:46.605Z,-21506.23
2019-04-05T14:15:16.070Z,-21527.20
2019-04-05T14:17:44.946Z,-21542.43
2019-04-05T14:20:13.418Z,-21528.60
2019-04-05T14:22:41.704Z,-21533.35
2019-04-05T14:25:10.537Z,-21542.15
2019-04-05T14:27:38.828Z,-21555.41
2019-04-05T14:30:07.541Z,-21556.39
2019-04-05T14:32:35.827Z,-21567.41
2019-04-05T14:35:07.901Z,-21563.08
2019-04-05T14:37:36.317Z,-21555.83
2019-04-05T14:40:06.302Z,-21546.75
2019-04-05T14:42:34.569Z,-21543.96
2019-04-05T14:45:03.440Z,-21502.17
2019-04-05T14:47:31.750Z,-21538.80
2019-04-05T14:50:00.970Z,-21533.35
2019-04-05T14:52:31.171Z,-21541.31
2019-04-05T14:54:59.962Z,-21546.20
2019-04-05T14:57:28.980Z,-21560.01
2019-04-05T14:59:57.234Z,-21546.47
2019-04-05T15:02:25.503Z,-21548.43
2019-04-05T15:04:53.786Z,-21529.58
2019-04-05T15:07:22.120Z,-21533.07
2019-04-05T15:09:50.470Z,-21540.19
2019-04-05T15:12:18.764Z,-21502.45
2019-04-05T15:14:47.057Z,-21510.43
2019-04-05T15:17:15.772Z,-21485.51
2019-04-05T15:19:44.116Z,-21535.73
2019-04-05T15:22:12.408Z,-21543.54
2019-04-05T15:24:40.675Z,-21505.39
2019-04-05T15:27:08.954Z,-21542.00
2019-04-05T15:29:37.215Z,-21536.84
2019-04-05T15:32:06.555Z,-21530.56
2019-04-05T15:34:34.850Z,-21538.10
2019-04-05T15:37:03.112Z,-21544.24
2019-04-05T15:39:32.168Z,-21554.99
2019-04-05T15:42:00.578Z,-21539.36
2019-04-05T15:44:28.856Z,-21544.10
2019-04-05T15:46:57.130Z,-21551.22
2019-04-05T15:49:25.405Z,-21495.59
2019-04-05T15:51:55.125Z,-21504.55
2019-04-05T15:54:23.702Z,-21533.91
2019-04-05T15:56:51.956Z,-21516.44
2019-04-05T15:59:21.842Z,-21523.84
2019-04-05T16:01:50.411Z,-21534.75
2019-04-05T16:04:18.694Z,-21518.12
2019-04-05T16:06:47.004Z,-21540.05
2019-04-05T16:09:16.903Z,-21542.98
2019-04-05T16:11:45.253Z,-21532.79
2019-04-05T16:14:13.540Z,-21522.03
2019-04-05T16:16:41.816Z,-21536.28
2019-04-05T16:19:10.138Z,-21538.93
2019-04-05T16:21:38.419Z,-21532.09
2019-04-05T16:24:06.724Z,-21526.78
2019-04-05T16:26:34.986Z,-21501.75
2019-04-05T16:29:03.349Z,-21500.36
2019-04-05T16:31:31.730Z,-21506.93
2019-04-05T16:34:00.004Z,-21518.25
2019-04-05T16:36:30.893Z,-21520.77
2019-04-05T16:38:58.416Z,-21533.21
2019-04-05T16:41:26.696Z,-21530.41
2019-04-05T16:43:54.961Z,-21511.97
2019-04-05T16:46:23.252Z,-21528.74
2019-04-05T16:48:51.541Z,-21531.68
2019-04-05T16:51:19.809Z,-21522.59
2019-04-05T16:54:01.022Z,-21530.00
2019-04-05T16:56:29.675Z,-21479.21
2019-04-05T16:58:58.326Z,-21505.95
2019-04-05T17:01:27.691Z,-21518.40
2019-04-05T17:03:56.200Z,-21529.30
2019-04-05T17:06:30.396Z,-21543.13
2019-04-05T17:08:58.673Z,-21548.57
2019-04-05T17:11:26.977Z,-21535.73
2019-04-05T17:13:59.386Z,-21521.89
2019-04-05T17:16:25.265Z,-21467.73
2019-04-05T17:18:53.558Z,-21454.26
2019-04-05T17:21:21.849Z,-21466.18
2019-04-05T17:23:50.135Z,-21437.57
2019-04-05T17:26:18.441Z,-21449.78
2019-04-05T17:28:46.728Z,-21435.32
2019-04-05T17:31:14.994Z,-21432.38
2019-04-05T17:33:43.326Z,-21457.07
2019-04-05T17:36:11.605Z,-21445.43
2019-04-05T17:38:39.885Z,-21439.95
2019-04-05T17:41:08.151Z,-21438.83
2019-04-05T17:43:36.459Z,-21457.63
2019-04-05T17:46:04.836Z,-21452.02
2019-04-05T17:48:33.131Z,-21443.04
2019-04-05T17:51:01.536Z,-21451.04
2019-04-05T17:53:29.816Z,-21473.89
2019-04-05T17:55:59.133Z,-21462.40
2019-04-05T17:58:28.831Z,-21427.74
2019-04-05T18:00:57.253Z,-21446.27
2019-04-05T18:03:25.704Z,-21467.03
2019-04-05T18:05:53.998Z,-21528.04
2019-04-05T18:08:22.252Z,-21538.10
2019-04-05T18:10:50.568Z,-21539.49
2019-04-05T18:13:18.853Z,-21523.99
2019-04-05T18:15:52.844Z,-21541.87
2019-04-05T18:18:17.163Z,-21538.24
2019-04-05T18:20:45.585Z,-21540.75
2019-04-05T18:23:24.411Z,-21541.59
2019-04-05T18:25:43.958Z,-21542.00
2019-04-05T18:28:12.245Z,-21545.64
2019-04-05T18:30:43.956Z,-21557.08
2019-04-05T18:33:12.433Z,-21533.63
2019-04-05T18:35:40.694Z,-21512.80
2019-04-05T18:38:09.333Z,-21507.07
2019-04-05T18:40:40.250Z,-21525.66
2019-04-05T18:43:07.678Z,-21509.87
2019-04-05T18:45:35.989Z,-21506.23
2019-04-05T18:48:04.328Z,-21532.23
2019-04-05T18:50:32.597Z,-21531.95
2019-04-05T18:53:00.882Z,-21531.12
2019-04-05T18:55:29.139Z,-21541.31
2019-04-05T18:57:57.418Z,-21529.44
2019-04-05T19:00:25.697Z,-21540.33
2019-04-05T19:02:53.969Z,-21530.84
2019-04-05T19:05:22.275Z,-21533.63
2019-04-05T19:07:50.554Z,-21529.16
2019-04-05T19:10:18.844Z,-21537.26
2019-04-05T19:12:47.371Z,-21521.47
2019-04-05T19:15:15.820Z,-21536.42
2019-04-05T19:17:44.118Z,-21532.23
2019-04-05T19:20:12.399Z,-21497.55
2019-04-05T19:22:40.703Z,-21527.20
2019-04-05T19:25:08.980Z,-21519.94
2019-04-05T19:27:37.251Z,-21530.14
2019-04-05T19:50:08.422Z,-21513.37
2019-04-05T19:52:38.182Z,-21511.68
2019-04-05T19:55:06.854Z,-21502.73
2019-04-05T19:57:35.187Z,-21506.51
2019-04-05T20:00:04.697Z,-21512.11
2019-04-05T20:02:32.974Z,-21514.91
2019-04-05T20:05:01.259Z,-21526.92
2019-04-05T20:07:29.558Z,-21482.99
2019-04-05T20:09:57.817Z,-21495.18
2019-04-05T20:12:26.120Z,-21479.35
2019-04-05T20:14:54.411Z,-21499.51
2019-04-05T20:17:22.677Z,-21519.94
2019-04-05T20:19:51.066Z,-21498.95
2019-04-05T20:22:19.476Z,-21536.84
2019-04-05T20:24:47.753Z,-21515.32
2019-04-05T20:27:16.049Z,-21530.70
2019-04-05T20:29:44.306Z,-21523.99
2019-04-05T20:32:12.574Z,-21505.11
2019-04-05T20:34:40.883Z,-21488.04
2019-04-05T20:37:09.141Z,-21523.99
2019-04-05T20:39:37.430Z,-21542.43
2019-04-05T20:42:06.688Z,-21553.45
2019-04-05T20:44:34.983Z,-21558.20
2019-04-05T20:47:03.293Z,-21521.05
2019-04-05T20:49:31.569Z,-21519.52
2019-04-05T20:51:59.924Z,-21521.19
2019-04-05T20:54:28.306Z,-21471.09
2019-04-05T20:56:56.589Z,-21511.68
2019-04-05T20:59:24.853Z,-21536.14
2019-04-05T21:01:53.176Z,-21541.17
2019-04-05T21:04:21.442Z,-21528.88
2019-04-05T21:06:49.764Z,-21539.77
2019-04-05T21:09:18.056Z,-21529.16
2019-04-05T21:11:46.329Z,-21527.06
2019-04-05T21:14:14.605Z,-21524.27
2019-04-05T21:16:42.939Z,-21533.91
2019-04-05T21:19:11.252Z,-21529.86
2019-04-05T21:21:39.606Z,-21521.19
2019-04-05T21:24:07.914Z,-21544.52
2019-04-05T21:26:36.273Z,-21553.88
2019-04-05T21:29:04.556Z,-21539.64
2019-04-05T21:31:32.843Z,-21530.41
2019-04-05T21:34:01.124Z,-21539.91
2019-04-05T21:36:29.419Z,-21544.38
2019-04-05T21:38:57.696Z,-21540.33
2019-04-05T21:41:25.998Z,-21532.37
2019-04-05T21:43:54.267Z,-21543.27
2019-04-05T21:46:22.595Z,-21538.93
2019-04-05T21:48:50.857Z,-21528.32
2019-04-05T21:51:19.123Z,-21527.20
2019-04-05T21:53:47.569Z,-21536.00
2019-04-05T21:56:15.766Z,-21540.19
2019-04-05T21:58:44.045Z,-21554.85
2019-04-05T22:01:12.750Z,-21540.19
2019-04-05T22:03:41.036Z,-21542.71
2019-04-05T22:06:09.373Z,-21536.70
2019-04-05T22:08:37.645Z,-21548.99
2019-04-05T22:11:06.414Z,-21548.16
2019-04-05T22:13:34.678Z,-21542.56
2019-04-05T22:16:02.980Z,-21550.25
2019-04-05T22:18:31.329Z,-21548.85
2019-04-05T22:21:02.600Z,-21531.95
2019-04-05T22:23:30.888Z,-21525.11
2019-04-05T22:25:59.233Z,-21543.68
2019-04-05T22:28:27.520Z,-21524.40
2019-04-05T22:30:55.807Z,-21507.62
2019-04-05T22:33:24.222Z,-21531.68
2019-04-05T22:35:52.504Z,-21531.39
2019-04-05T22:38:20.850Z,-21529.86
2019-04-05T22:40:49.122Z,-21547.59
2019-04-05T22:43:17.410Z,-21533.35
2019-04-05T22:45:45.717Z,-21517.56
2019-04-05T22:48:13.985Z,-21520.91
2019-04-05T22:50:42.286Z,-21522.45
2019-04-05T22:53:10.544Z,-21537.54
2019-04-05T22:55:38.809Z,-21533.63
2019-04-05T22:58:07.180Z,-21527.06
2019-04-05T23:00:35.472Z,-21522.03
2019-04-05T23:03:03.730Z,-21533.77
2019-04-05T23:05:32.016Z,-21521.61
2019-04-05T23:08:00.296Z,-21519.23
2019-04-05T23:10:28.577Z,-21531.95
2019-04-05T23:12:56.857Z,-21531.95
2019-04-05T23:15:25.159Z,-21538.80
2019-04-05T23:17:53.503Z,-21528.88
2019-04-05T23:20:21.774Z,-21502.17
2019-04-05T23:22:50.051Z,-21527.34
2019-04-05T23:25:22.059Z,-21529.30
2019-04-05T23:27:48.413Z,-21531.95
2019-04-05T23:30:17.898Z,-21537.96
2019-04-05T23:32:46.166Z,-21510.15
2019-04-05T23:35:14.441Z,-21535.03
2019-04-05T23:37:42.711Z,-21516.58
2019-04-05T23:40:11.117Z,-21521.61
2019-04-05T23:42:39.466Z,-21535.44
2019-04-05T23:45:07.876Z,-21530.84
2019-04-05T23:47:36.146Z,-21529.30
2019-04-05T23:50:05.470Z,-21523.57
2019-04-05T23:52:33.756Z,-21520.77
2019-04-05T23:55:02.034Z,-21514.34
2019-04-05T23:57:30.317Z,-21515.60
2019-04-05T23:59:58.598Z,-21523.29
